LICC/CTA METAR and TAF weather

Enter ICAO airport designator
Station Type Date Time Source
LICC METAR 2019/08/24 18:50 UTC NOAA

LICC 241850Z 25003KT 230V290 CAVOK 27/17 Q1015


Station Type Date Time Source
LICC Decoded METAR 2019/08/24 18:50 UTC NOAA

Station name not available
Aug 24, 2019 - 02:50 PM EDT / 2019.08.24 1850 UTC
Wind: from the WSW (250 degrees) at 3 MPH (3 KT) (direction variable):0
Visibility: greater than 7 mile(s):0
Temperature: 80 F (27 C)
Dew Point: 62 F (17 C)
Relative Humidity: 54%
Pressure (altimeter): 29.97 in. Hg (1015 hPa)
ob: LICC 241850Z 25003KT 230V290 CAVOK 27/17 Q1015
cycle: 19

Station Type Date Time Source
LICC TAF 2019/08/24 18:21 UTC NOAA

TAF LICC 241700Z 2418/2518 VRB05KT 9999 SCT050
BECMG 2510/2512 08012KT

Example: see airport list